Time;durP1;ratioP1;P1;durP2;ratioP2;P2;SDS_P1;SDS_P2;PMS_P1;PMS_P2;Temp;Humidity;BMP_temperature;BMP_pressure;BME280_temperature;BME280_humidity;BME280_pressure;Samples;Min_cycle;Max_cycle;Signal;HPM_P1;HPM_P2
2021/12/09 00:02:02;;;;;;;;;;;;;;;-0.01;100.00;98995.19;1644588;85;20146;-68
2021/12/09 00:04:31;;;;;;;;;;;;;;;-0.07;100.00;98998.40;1651479;84;20172;-64
2021/12/09 00:06:58;;;;;;;;;;;;;;;-0.04;100.00;98997.08;1648226;84;20155;-66
2021/12/09 00:09:24;;;;;;;;;;;;;;;-0.06;100.00;98996.52;1629217;87;20857;-64
2021/12/09 00:11:50;;;;;;;;;;;;;;;-0.06;100.00;99000.05;1620951;87;21153;-65
2021/12/09 00:14:25;;;;;;;;;;;;;;;-0.04;100.00;98998.44;1663818;84;20254;-66
2021/12/09 00:16:53;;;;;;;;;;;;;;;-0.07;100.00;98997.61;1665170;84;20206;-64
2021/12/09 00:19:21;;;;;;;;;;;;;;;-0.08;100.00;99003.55;1675768;84;20872;-65
2021/12/09 00:21:47;;;;;;;;;;;;;;;-0.12;100.00;99009.23;1657821;84;20353;-65
2021/12/09 00:24:15;;;;;;;;;;;;;;;-0.14;100.00;99010.03;1671046;84;21148;-67
2021/12/09 00:26:44;;;;;;;;;;;;;;;-0.14;100.00;99005.41;1652061;86;20229;-64
2021/12/09 00:29:13;;;;;;;;;;;;;;;-0.09;100.00;99010.06;1674010;84;20255;-64
2021/12/09 00:31:40;;;;;;;;;;;;;;;-0.07;100.00;99006.53;1636230;85;20551;-65
2021/12/09 00:34:06;;;;;;;;;;;;;;;-0.01;100.00;99011.45;1675172;84;20471;-66
2021/12/09 00:36:41;;;;;;;;;;;;;;;-0.01;100.00;99014.16;1675041;84;21068;-65
2021/12/09 00:39:01;;;;;;;;;;;;;;;-0.01;100.00;99019.58;1671738;84;20471;-68
2021/12/09 00:41:27;;;;;;;;;;;;;;;-0.06;100.00;99016.30;1651843;84;20185;-69
2021/12/09 00:43:53;;;;;;;;;;;;;;;-0.06;100.00;99016.30;1666863;84;20168;-65
2021/12/09 00:46:19;;;;;;;;;;;;;;;-0.02;100.00;99024.73;1651879;84;20536;-64
2021/12/09 00:48:46;;;;;;;;;;;;;;;-0.04;100.00;99022.28;1648626;85;21129;-64
2021/12/09 00:51:13;;;;;;;;;;;;;;;-0.04;100.00;99018.22;1646612;86;20179;-69
2021/12/09 00:53:40;;;;;;;;;;;;;;;-0.04;100.00;99018.75;1625865;85;20182;-67
2021/12/09 00:56:07;;;;;;;;;;;;;;;-0.04;100.00;99024.99;1628443;84;20504;-65
2021/12/09 00:58:33;;;;;;;;;;;;;;;-0.04;100.00;99024.99;1663515;84;20168;-65
2021/12/09 01:00:59;;;;;;;;;;;;;;;-0.03;100.00;99018.48;1645957;86;21161;-65
2021/12/09 01:03:25;;;;;;;;;;;;;;;-0.03;100.00;99019.02;1652495;86;20493;-68
2021/12/09 01:05:51;;;;;;;;;;;;;;;-0.03;100.00;99017.13;1643339;86;20172;-68
2021/12/09 01:08:18;;;;;;;;;;;;;;;0.03;100.00;99021.23;1616932;86;20165;-65
2021/12/09 01:10:45;;;;;;;;;;;;;;;0.08;100.00;99019.91;1667803;84;20178;-64
2021/12/09 01:13:12;;;;;;;;;;;;;;;0.14;100.00;99022.91;1673247;84;21148;-64
2021/12/09 01:15:39;;;;;;;;;;;;;;;0.10;100.00;99024.53;1672535;84;20183;-67
2021/12/09 01:18:05;;;;;;;;;;;;;;;0.05;100.00;99024.50;1672996;84;20196;-64
2021/12/09 01:20:31;;;;;;;;;;;;;;;0.05;100.00;99024.50;1646511;84;20207;-64
2021/12/09 01:22:58;;;;;;;;;;;;;;;0.09;100.00;99024.23;1644025;86;20149;-64
2021/12/09 01:25:25;;;;;;;;;;;;;;;0.14;100.00;99028.33;1629908;86;21174;-66
2021/12/09 01:27:54;;;;;;;;;;;;;;;0.16;100.00;99028.89;1660092;84;20485;-64
2021/12/09 01:30:21;;;;;;;;;;;;;;;0.17;100.00;99027.80;1683041;84;20228;-67
2021/12/09 01:32:51;;;;;;;;;;;;;;;0.16;100.00;99024.83;1650060;85;20171;-64
2021/12/09 01:35:28;;;;;;;;;;;;;;;0.19;100.00;99031.06;1672609;84;20166;-64
2021/12/09 01:37:58;;;;;;;;;;;;;;;0.14;100.00;99031.03;1657574;84;21119;-64
2021/12/09 07:58:25;;;;;;;23.05;12.75;;;;;;;-0.28;100.00;99319.22;1896493;75;21944;-65
2021/12/09 08:00:53;;;;;;;20.97;13.58;;;;;;;-0.19;100.00;99324.18;1864542;77;20908;-65
2021/12/09 08:03:20;;;;;;;28.90;16.17;;;;;;;-0.10;100.00;99328.62;1864526;77;21149;-66
2021/12/09 08:05:49;;;;;;;31.30;14.40;;;;;;;-0.11;100.00;99329.15;1864331;77;20952;-66
2021/12/09 08:08:16;;;;;;;25.32;13.58;;;;;;;-0.14;100.00;99337.78;1863947;77;20952;-64
2021/12/09 08:10:46;;;;;;;26.12;13.58;;;;;;;-0.15;100.00;99332.06;1830659;78;20900;-66
2021/12/09 08:13:13;;;;;;;21.93;13.30;;;;;;;-0.11;100.00;99329.67;1856340;77;21492;-66
2021/12/09 08:15:45;;;;;;;22.87;13.15;;;;;;;-0.06;100.00;99329.73;1864400;77;21433;-66
2021/12/09 08:20:48;;;;;;;21.68;12.78;;;;;;;-0.04;100.00;99332.48;1861870;77;20988;-66
2021/12/09 08:23:15;;;;;;;22.67;12.85;;;;;;;0.02;100.00;99330.63;1843803;77;20996;-67
2021/12/09 08:25:43;;;;;;;23.92;12.88;;;;;;;0.02;100.00;99330.63;1847346;77;20880;-67
2021/12/09 08:28:10;;;;;;;24.90;12.13;;;;;;;0.04;100.00;99327.67;1846578;77;21145;-67
2021/12/09 08:30:38;;;;;;;24.00;12.23;;;;;;;0.10;100.00;99330.73;1774660;77;20913;-66
2021/12/09 08:33:08;;;;;;;20.80;11.68;;;;;;;0.18;100.00;99333.51;1847775;77;20896;-68
2021/12/09 08:35:35;;;;;;;24.80;12.10;;;;;;;0.20;100.00;99340.86;1847565;77;20916;-66
2021/12/09 08:38:04;;;;;;;22.17;10.20;;;;;;;0.22;100.00;99336.00;1847676;77;20956;-67
2021/12/09 08:40:32;;;;;;;23.77;11.75;;;;;;;0.20;100.00;99329.48;1847170;77;21211;-66
2021/12/09 08:43:00;;;;;;;17.85;11.05;;;;;;;0.27;100.00;99329.28;1819412;77;20945;-67
2021/12/09 08:45:28;;;;;;;21.95;12.23;;;;;;;0.30;100.00;99327.94;1819258;77;20967;-66
2021/12/09 08:47:54;;;;;;;20.92;12.20;;;;;;;0.34;100.00;99329.08;1821042;77;20881;-66
2021/12/09 08:50:24;;;;;;;22.62;11.65;;;;;;;0.41;100.00;99324.80;1814498;79;20854;-66
2021/12/09 08:52:52;;;;;;;17.75;10.65;;;;;;;0.42;100.00;99321.83;1814370;79;21134;-66
2021/12/09 08:55:19;;;;;;;23.75;11.25;;;;;;;0.47;100.00;99325.12;1748137;81;20961;-66
2021/12/09 08:57:46;;;;;;;20.60;10.63;;;;;;;0.50;100.00;99315.63;1765156;80;20929;-66
2021/12/09 09:00:14;;;;;;;18.60;10.40;;;;;;;0.53;100.00;99320.56;1747415;81;21458;-67
2021/12/09 09:02:42;;;;;;;20.75;10.70;;;;;;;0.53;100.00;99323.28;1764721;81;20990;-67
2021/12/09 09:05:11;;;;;;;19.27;11.08;;;;;;;0.51;100.00;99324.89;1765068;81;21507;-66
2021/12/09 09:07:39;;;;;;;17.45;9.53;;;;;;;0.52;100.00;99318.91;1764676;81;21530;-65
2021/12/09 09:10:09;;;;;;;15.78;10.60;;;;;;;0.51;100.00;99329.48;1765361;80;20934;-66
2021/12/09 09:12:36;;;;;;;18.77;10.68;;;;;;;0.47;100.00;99323.23;1764710;80;21288;-66
2021/12/09 09:15:09;;;;;;;19.87;10.32;;;;;;;0.48;100.00;99322.14;1764711;81;20874;-66
2021/12/09 09:17:35;;;;;;;19.05;10.45;;;;;;;0.53;100.00;99323.28;1764909;81;21071;-66
2021/12/09 09:20:08;;;;;;;20.52;9.50;;;;;;;0.54;100.00;99317.59;1764914;80;20871;-66
2021/12/09 09:22:39;;;;;;;21.33;11.28;;;;;;;0.55;100.00;99319.75;1764836;81;20925;-66
2021/12/09 09:25:10;;;;;;;20.80;10.65;;;;;;;0.52;100.00;99327.88;1764842;80;20918;-65
2021/12/09 09:27:36;;;;;;;19.25;9.68;;;;;;;0.46;100.00;99321.58;1764681;81;21501;-65
2021/12/09 09:30:06;;;;;;;15.40;9.23;;;;;;;0.47;100.00;99323.23;1747354;81;21031;-66
2021/12/09 09:32:35;;;;;;;18.40;10.72;;;;;;;0.53;100.00;99325.98;1764718;80;20870;-66
2021/12/09 09:35:01;;;;;;;19.00;10.30;;;;;;;0.53;100.00;99324.63;1765147;81;20921;-66
2021/12/09 09:37:27;;;;;;;25.52;12.95;;;;;;;0.52;100.00;99329.23;1764706;81;20907;-66
2021/12/09 09:39:53;;;;;;;22.90;12.60;;;;;;;0.55;100.00;99320.57;1765173;81;20874;-66
2021/12/09 09:42:44;;;;;;;17.62;10.23;;;;;;;0.53;100.00;99317.86;1747194;81;21018;-66
2021/12/09 09:44:57;;;;;;;24.45;11.70;;;;;;;0.55;100.00;99321.10;1762422;81;20984;-66
2021/12/09 09:47:22;;;;;;;18.98;11.55;;;;;;;0.56;100.00;99320.05;1764380;80;20917;-67
2021/12/09 09:49:49;;;;;;;24.02;11.00;;;;;;;0.57;100.00;99318.95;1747292;81;20961;-66
2021/12/09 09:52:16;;;;;;;22.40;11.73;;;;;;;0.57;100.00;99320.31;1764825;80;21032;-66
2021/12/09 09:54:42;;;;;;;21.85;11.05;;;;;;;0.53;100.00;99318.65;1765077;80;21497;-66
2021/12/09 09:57:09;;;;;;;24.70;12.93;;;;;;;0.53;100.00;99324.08;1764600;80;20925;-66
2021/12/09 09:59:40;;;;;;;19.57;11.15;;;;;;;0.48;100.00;99320.78;1764748;80;20967;-66
2021/12/09 10:02:07;;;;;;;18.98;10.65;;;;;;;0.44;100.00;99322.39;1764886;80;21004;-66
2021/12/09 10:04:44;;;;;;;20.17;11.18;;;;;;;0.44;100.00;99322.39;1764793;81;21435;-66
2021/12/09 10:07:02;;;;;;;22.60;11.03;;;;;;;0.45;100.00;99317.23;1763691;80;21395;-66
2021/12/09 10:09:31;;;;;;;20.80;11.15;;;;;;;0.47;100.00;99318.34;1764678;80;20973;-66
2021/12/09 10:11:59;;;;;;;19.45;10.82;;;;;;;0.52;100.00;99317.55;1747213;81;20898;-66
2021/12/09 10:14:35;;;;;;;17.42;10.18;;;;;;;0.54;100.00;99316.23;1764372;80;20950;-66
2021/12/09 10:17:08;;;;;;;16.40;9.83;;;;;;;0.55;100.00;99319.75;1758120;81;20913;-66
2021/12/09 10:19:40;;;;;;;;;;;;;;;0.57;100.00;99323.85;1767538;80;21101;-66
2021/12/09 10:22:24;;;;;;;16.40;9.25;;;;;;;0.58;100.00;99324.68;1747147;81;20096;-66
2021/12/09 10:24:51;;;;;;;17.45;10.13;;;;;;;0.60;100.00;99323.33;1747106;81;21006;-65
2021/12/09 10:27:28;;;;;;;22.58;10.75;;;;;;;0.62;100.00;99323.06;1764479;80;21509;-66
2021/12/09 10:30:00;;;;;;;17.73;9.70;;;;;;;0.63;100.00;99329.32;1764740;80;20934;-66
2021/12/09 10:32:31;;;;;;;16.45;10.15;;;;;;;0.63;100.00;99332.03;1765185;80;21108;-66
2021/12/09 10:35:10;;;;;;;20.17;10.50;;;;;;;0.64;100.00;99332.30;1764733;81;20973;-65
2021/12/09 10:37:39;;;;;;;20.12;11.57;;;;;;;0.67;100.00;99335.84;1747169;81;21493;-66
2021/12/09 10:40:15;;;;;;;22.05;12.50;;;;;;;0.61;100.00;99339.08;1764625;80;20962;-67
2021/12/09 10:42:50;;;;;;;20.82;10.95;;;;;;;0.62;100.00;99337.16;1747357;81;20921;-65
2021/12/09 10:45:20;;;;;;;20.27;11.95;;;;;;;0.61;100.00;99336.36;1732789;82;21831;-67
2021/12/09 10:47:56;;;;;;;23.73;11.57;;;;;;;0.62;100.00;99340.70;1764479;80;20929;-67
2021/12/09 10:50:36;;;;;;;20.30;11.08;;;;;;;0.62;100.00;99341.23;1747048;81;20923;-66
2021/12/09 10:55:58;;;;;;;22.52;11.43;;;;;;;0.62;100.00;99336.63;1764588;80;21538;-67
2021/12/09 10:58:31;;;;;;;16.97;10.80;;;;;;;0.63;100.00;99341.00;1659150;80;22956;-67
2021/12/09 11:01:05;;;;;;;17.75;10.60;;;;;;;0.59;100.00;99341.22;1624921;88;20885;-66
2021/12/09 11:03:53;;;;;;;17.62;10.00;;;;;;;0.60;100.00;99335.53;1625164;88;21544;-67
2021/12/09 11:06:33;;;;;;;18.90;10.85;;;;;;;0.60;100.00;99334.70;1595211;88;20996;-66
2021/12/09 11:09:06;;;;;;;22.93;9.85;;;;;;;0.59;100.00;99329.02;1599486;88;20996;-66
2021/12/09 11:11:43;;;;;;;14.47;8.20;;;;;;;0.59;100.00;99327.13;1625062;88;21040;-66
2021/12/09 11:14:17;;;;;;;17.55;9.85;;;;;;;0.55;100.00;99319.75;1641012;87;20956;-65
2021/12/09 11:17:03;;;;;;;21.90;11.38;;;;;;;0.50;100.00;99322.41;1640674;87;20952;-66
2021/12/09 11:19:41;;;;;;;18.73;11.20;;;;;;;0.53;100.00;99321.36;1653195;86;21092;-66
2021/12/09 11:22:09;;;;;;;19.62;11.10;;;;;;;0.56;100.00;99326.83;1624807;88;20961;-66
2021/12/09 11:24:41;;;;;;;17.98;10.78;;;;;;;0.55;100.00;99323.81;1624941;88;21142;-66
2021/12/09 11:27:15;;;;;;;20.43;11.10;;;;;;;0.57;100.00;99329.80;1641026;87;20912;-65
2021/12/09 11:29:48;;;;;;;20.72;11.55;;;;;;;0.60;100.00;99328.75;1648973;86;20956;-65
2021/12/09 11:35:17;;;;;;;21.25;11.33;;;;;;;0.64;100.00;99329.59;1625022;88;21555;-66
2021/12/09 11:37:55;;;;;;;19.45;11.05;;;;;;;0.66;100.00;99331.51;1625310;88;21557;-66
2021/12/09 11:40:51;;;;;;;20.72;11.53;;;;;;;0.67;100.00;99335.32;1598401;88;21048;-66
2021/12/09 11:43:24;;;;;;;20.00;10.80;;;;;;;0.68;100.00;99331.52;1624367;88;21004;-66
2021/12/09 11:45:53;;;;;;;21.12;11.55;;;;;;;0.71;100.00;99328.31;1626908;87;21003;-67
2021/12/09 11:48:20;;;;;;;18.10;11.65;;;;;;;0.76;100.00;99332.13;1651788;87;21453;-67
2021/12/09 11:50:51;;;;;;;21.20;11.50;;;;;;;0.76;100.00;99330.23;1651419;86;21113;-67
2021/12/09 11:53:21;;;;;;;21.07;11.83;;;;;;;0.79;100.00;99329.72;1651731;86;20897;-68
2021/12/09 11:56:05;;;;;;;21.42;11.60;;;;;;;0.82;100.00;99335.18;1651577;86;20916;-68
2021/12/09 11:58:32;;;;;;;17.23;10.50;;;;;;;0.81;100.00;99336.23;1696491;84;20987;-66
2021/12/09 12:13:02;;;;;;;18.77;11.22;;;;;;;0.75;100.00;99344.86;1700811;84;21544;-66
2021/12/09 12:15:51;;;;;;;22.32;10.58;;;;;;;0.78;100.00;99344.90;1700174;84;20983;-67
2021/12/09 12:18:44;;;;;;;20.20;11.38;;;;;;;0.79;100.00;99345.17;1699114;84;21004;-66
2021/12/09 12:24:24;;;;;;;21.75;11.85;;;;;;;0.80;100.00;99342.75;1700786;84;21010;-66
2021/12/09 12:26:56;;;;;;;23.50;12.95;;;;;;;0.78;100.00;99339.47;1698228;84;20952;-66
2021/12/09 12:32:17;;;;;;;23.95;12.53;;;;;;;0.75;100.00;99341.36;1676383;84;21489;-66
2021/12/09 12:37:53;;;;;;;22.67;13.32;;;;;;;0.76;100.00;99343.80;1700761;84;21000;-67
2021/12/09 12:40:22;;;;;;;25.45;14.15;;;;;;;0.76;100.00;99351.11;1676678;84;21062;-67
2021/12/09 12:43:03;;;;;;;30.40;14.50;;;;;;;0.77;100.00;99358.20;1683445;85;21025;-66
2021/12/09 12:51:44;;;;;;;24.75;13.22;;;;;;;0.85;100.00;99355.00;1675025;84;21004;-65
2021/12/09 12:54:25;;;;;;;26.05;13.30;;;;;;;0.90;100.00;99359.11;1682247;84;20983;-66
2021/12/09 12:56:57;;;;;;;24.67;14.58;;;;;;;0.93;100.00;99374.88;1683925;84;20984;-65
2021/12/09 12:59:35;;;;;;;27.55;13.75;;;;;;;0.94;100.00;99377.85;1683397;84;21982;-65
2021/12/09 13:02:20;;;;;;;26.07;13.58;;;;;;;0.95;100.00;99383.58;1690299;84;21595;-65
2021/12/09 13:13:26;;;;;;;29.23;14.83;;;;;;;0.95;100.00;99386.82;1683455;85;21169;-64
2021/12/09 13:16:40;;;;;;;22.77;13.15;;;;;;;0.95;100.00;99384.94;1666547;85;21420;-65
2021/12/09 13:22:01;;;;;;;23.18;12.88;;;;;;;0.96;100.00;99386.56;1683286;84;21063;-66
2021/12/09 13:27:43;;;;;;;18.82;9.43;;;;;;;0.93;100.00;99384.37;1683547;85;21508;-65
2021/12/09 13:30:31;;;;;;;25.25;13.32;;;;;;;0.88;100.00;99386.21;1667705;85;20949;-67
2021/12/09 13:33:22;;;;;;;24.45;13.65;;;;;;;0.81;100.00;99386.42;1700744;84;21054;-66
2021/12/09 13:47:06;;;;;;;25.23;13.40;;;;;;;0.79;100.00;99394.83;1683081;83;20980;-66
2021/12/09 13:50:11;;;;;;;26.30;13.70;;;;;;;0.81;100.00;99391.33;1699505;84;21543;-65
2021/12/09 13:55:21;;;;;;;23.27;11.95;;;;;;;0.81;100.00;99395.39;1700545;84;21188;-66
2021/12/09 13:57:57;;;;;;;22.10;11.15;;;;;;;0.84;100.00;99400.83;1669424;85;21055;-66
2021/12/09 14:00:44;;;;;;;21.50;12.00;;;;;;;0.84;100.00;99398.94;1679583;85;21549;-66
2021/12/09 14:03:17;;;;;;;24.37;12.88;;;;;;;0.85;100.00;99404.64;1714572;83;21067;-62
2021/12/09 14:05:52;;;;;;;22.45;12.80;;;;;;;0.88;100.00;99401.96;1686238;83;21011;-63
2021/12/09 14:08:35;;;;;;;24.00;13.55;;;;;;;0.90;100.00;99403.06;1684673;83;20995;-64
2021/12/09 14:11:05;;;;;;;19.52;11.45;;;;;;;0.91;100.00;99412.30;1714562;83;20999;-63
2021/12/09 14:13:36;;;;;;;23.87;12.20;;;;;;;0.92;100.00;99418.55;1687761;83;21044;-65
2021/12/09 14:19:57;;;;;;;31.30;12.35;;;;;;;0.91;100.00;99419.61;1685097;83;21047;-64
2021/12/09 14:21:01;;;;;;;20.75;11.68;;;;;;;0.91;100.00;99416.36;1706728;83;21138;-64
2021/12/09 14:23:30;;;;;;;22.75;12.47;;;;;;;0.91;100.00;99420.44;1713738;83;21003;-65
2021/12/09 14:25:56;;;;;;;21.70;11.33;;;;;;;0.92;100.00;99431.56;1710336;83;21607;-67
2021/12/09 14:28:23;;;;;;;20.48;11.30;;;;;;;0.92;100.00;99430.20;1714582;83;21012;-64
2021/12/09 14:30:50;;;;;;;20.45;10.95;;;;;;;0.93;100.00;99435.92;1654873;83;21074;-65
2021/12/09 14:33:19;;;;;;;20.75;10.85;;;;;;;0.94;100.00;99440.27;1714663;83;21214;-65
2021/12/09 14:35:48;;;;;;;21.10;11.48;;;;;;;0.94;100.00;99436.19;1715021;83;20999;-66
2021/12/09 14:38:21;;;;;;;18.00;10.32;;;;;;;0.96;100.00;99431.34;1714760;83;21506;-67
2021/12/09 14:41:02;;;;;;;19.37;10.78;;;;;;;0.96;100.00;99426.44;1714832;83;20955;-67
2021/12/09 14:43:29;;;;;;;19.82;11.45;;;;;;;0.96;100.00;99423.20;1714596;83;21024;-67
2021/12/09 14:46:10;;;;;;;21.57;11.97;;;;;;;0.96;100.00;99427.80;1713055;82;20974;-65
2021/12/09 14:48:41;;;;;;;21.57;11.08;;;;;;;0.96;100.00;99423.72;1714752;83;20981;-66
2021/12/09 14:51:20;;;;;;;23.55;11.93;;;;;;;0.94;100.00;99422.63;1714769;83;20931;-64
2021/12/09 14:53:55;;;;;;;21.15;10.72;;;;;;;0.93;100.00;99422.36;1714863;83;20996;-67
2021/12/09 14:56:32;;;;;;;20.25;11.55;;;;;;;0.93;100.00;99423.72;1685161;83;21083;-67
2021/12/09 14:59:23;;;;;;;24.18;10.32;;;;;;;0.92;100.00;99422.62;1686547;83;21087;-66
2021/12/09 15:02:08;;;;;;;22.52;12.37;;;;;;;0.89;100.00;99422.58;1710710;83;21465;-63
2021/12/09 15:04:47;;;;;;;20.92;11.63;;;;;;;0.89;100.00;99423.94;1697719;83;21012;-65
2021/12/09 15:07:16;;;;;;;18.27;10.98;;;;;;;0.88;100.00;99426.38;1709189;83;20980;-66
2021/12/09 15:09:40;;;;;;;20.50;11.83;;;;;;;0.88;100.00;99418.77;1708000;83;21500;-69
2021/12/09 15:12:09;;;;;;;18.50;11.90;;;;;;;0.89;100.00;99425.30;1710530;83;21459;-67
2021/12/09 15:14:39;;;;;;;20.70;12.78;;;;;;;0.91;100.00;99422.32;1710510;83;21488;-66
2021/12/09 15:17:19;;;;;;;31.37;13.95;;;;;;;0.90;100.00;99425.59;1710983;83;21059;-67
2021/12/09 15:20:11;;;;;;;24.52;13.00;;;;;;;0.91;100.00;99427.22;1710024;83;21051;-65
2021/12/09 15:23:09;;;;;;;24.65;13.78;;;;;;;0.92;100.00;99425.33;1703047;83;21006;-67
2021/12/09 15:25:35;;;;;;;28.83;13.78;;;;;;;0.93;100.00;99431.86;1677259;83;21488;-66
2021/12/09 15:28:18;;;;;;;29.52;13.58;;;;;;;0.96;100.00;99431.34;1710669;83;21070;-66
2021/12/09 15:30:59;;;;;;;22.35;13.20;;;;;;;0.97;100.00;99428.89;1708140;83;21062;-64
2021/12/09 15:33:45;;;;;;;26.12;14.87;;;;;;;0.98;100.00;99436.50;1700892;83;21510;-65
2021/12/09 15:36:30;;;;;;;29.85;15.53;;;;;;;0.97;100.00;99430.25;1705655;83;21056;-64
2021/12/09 15:39:16;;;;;;;31.10;16.75;;;;;;;0.96;100.00;99434.05;1708931;83;21141;-64
2021/12/09 15:41:47;;;;;;;27.17;15.88;;;;;;;0.97;100.00;99432.96;1710642;83;21054;-64
2021/12/09 15:44:23;;;;;;;29.77;15.53;;;;;;;0.96;100.00;99429.98;1669434;84;21032;-65
2021/12/09 15:46:58;;;;;;;26.33;15.08;;;;;;;0.96;100.00;99431.86;1709964;83;21030;-63
2021/12/09 15:49:27;;;;;;;23.85;15.05;;;;;;;0.96;100.00;99430.50;1708560;83;21521;-64
2021/12/09 15:51:58;;;;;;;26.02;14.73;;;;;;;0.97;100.00;99428.89;1702111;84;21121;-65
2021/12/09 15:54:30;;;;;;;32.48;15.15;;;;;;;0.99;100.00;99426.47;1662177;84;21002;-67
2021/12/09 15:57:04;;;;;;;23.75;13.15;;;;;;;1.00;100.00;99429.45;1698520;84;21109;-68
2021/12/09 15:59:32;;;;;;;25.20;14.95;;;;;;;1.00;100.00;99425.38;1696100;83;20991;-68
2021/12/09 16:02:02;;;;;;;32.03;16.50;;;;;;;1.02;100.00;99436.81;1691655;82;21023;-65
2021/12/09 16:04:32;;;;;;;30.45;15.08;;;;;;;1.03;100.00;99438.44;1686838;83;21032;-64
2021/12/09 16:07:01;;;;;;;28.50;14.83;;;;;;;1.04;100.00;99432.75;1711410;82;21012;-64
2021/12/09 16:09:32;;;;;;;27.42;15.20;;;;;;;1.03;100.00;99436.55;1707199;83;21070;-65
2021/12/09 16:12:00;;;;;;;26.62;14.50;;;;;;;1.05;100.00;99436.28;1698563;82;21087;-65
2021/12/09 16:14:30;;;;;;;28.92;16.37;;;;;;;1.05;100.00;99432.22;1658586;85;21065;-65
2021/12/09 16:17:00;;;;;;;29.32;15.58;;;;;;;1.07;100.00;99445.00;1712150;83;21341;-65
2021/12/09 16:19:35;;;;;;;23.22;13.62;;;;;;;1.07;100.00;99440.92;1676247;84;20936;-65
2021/12/09 16:22:18;;;;;;;31.23;15.53;;;;;;;1.10;100.00;99448.55;1663094;83;20973;-65
2021/12/09 16:24:27;;;;;;;26.20;14.47;;;;;;;1.11;100.00;99446.66;1709940;83;21019;-65
2021/12/09 16:26:56;;;;;;;26.80;14.18;;;;;;;1.12;100.00;99454.54;1702432;83;21500;-67
2021/12/09 16:29:23;;;;;;;26.85;14.75;;;;;;;1.14;100.00;99459.71;1702660;83;21148;-65
2021/12/09 16:31:50;;;;;;;31.42;16.05;;;;;;;1.14;100.00;99457.83;1700589;83;21083;-67
2021/12/09 16:34:20;;;;;;;31.97;15.75;;;;;;;1.16;100.00;99459.72;1703581;83;21075;-67
2021/12/09 16:36:48;;;;;;;30.00;16.30;;;;;;;1.17;100.00;99461.90;1700261;83;21039;-68
2021/12/09 16:39:17;;;;;;;27.93;15.98;;;;;;;1.20;100.00;99474.42;1713055;83;20968;-67
2021/12/09 16:41:43;;;;;;;31.77;16.93;;;;;;;1.21;100.00;99467.11;1711249;83;21160;-66
2021/12/09 16:44:10;;;;;;;32.13;16.50;;;;;;;1.23;100.00;99476.34;1676103;83;21047;-66
2021/12/09 16:46:38;;;;;;;30.37;16.20;;;;;;;1.24;100.00;99473.91;1702573;82;21055;-67
2021/12/09 16:49:08;;;;;;;33.13;16.73;;;;;;;1.25;100.00;99477.71;1700966;84;20992;-67
2021/12/09 16:51:35;;;;;;;36.13;18.35;;;;;;;1.29;100.00;99478.02;1713958;83;21444;-68
2021/12/09 16:54:02;;;;;;;35.60;18.87;;;;;;;1.30;100.00;99476.93;1695602;83;21173;-66
2021/12/09 16:59:09;;;;;;;37.45;18.92;;;;;;;1.32;100.00;99472.89;1671757;83;21101;-67
2021/12/09 17:01:36;;;;;;;31.52;17.00;;;;;;;1.33;100.00;99477.79;1712494;83;21551;-66
2021/12/09 17:04:08;;;;;;;35.15;17.87;;;;;;;1.32;100.00;99475.61;1722801;83;21121;-65
2021/12/09 17:06:35;;;;;;;38.55;18.32;;;;;;;1.32;100.00;99476.97;1699583;83;21070;-65
2021/12/09 17:09:04;;;;;;;34.25;18.30;;;;;;;1.33;100.00;99479.95;1725939;83;21055;-65
2021/12/09 17:11:32;;;;;;;33.60;16.62;;;;;;;1.35;100.00;99476.17;1725755;83;21054;-68
2021/12/09 17:14:05;;;;;;;30.77;16.40;;;;;;;1.35;100.00;99478.33;1724784;83;21019;-68
2021/12/09 17:16:31;;;;;;;32.65;18.48;;;;;;;1.38;100.00;99472.94;1697349;83;21641;-69
2021/12/09 17:18:58;;;;;;;32.25;17.35;;;;;;;1.38;100.00;99480.52;1716218;83;21062;-68
2021/12/09 17:21:24;;;;;;;36.17;17.85;;;;;;;1.40;100.00;99475.66;1709798;83;21032;-67
2021/12/09 17:23:50;;;;;;;33.63;18.07;;;;;;;1.42;100.00;99473.50;1708948;82;21138;-66
2021/12/09 17:26:17;;;;;;;40.00;20.62;;;;;;;1.43;100.00;99480.56;1699380;83;21460;-68
2021/12/09 17:28:43;;;;;;;38.83;20.25;;;;;;;1.44;100.00;99480.03;1726223;83;21661;-68
2021/12/09 17:31:11;;;;;;;41.83;20.75;;;;;;;1.43;100.00;99477.84;1725272;83;21015;-69
2021/12/09 17:33:38;;;;;;;38.45;18.57;;;;;;;1.44;100.00;99480.86;1726737;83;20984;-67
2021/12/09 17:36:08;;;;;;;36.70;18.17;;;;;;;1.45;100.00;99479.77;1726255;83;21039;-67
2021/12/09 17:38:39;;;;;;;37.55;19.75;;;;;;;1.46;100.00;99476.52;1726154;83;21440;-65
2021/12/09 17:41:08;;;;;;;35.45;19.92;;;;;;;1.46;100.00;99481.95;1700297;83;21006;-68
2021/12/09 17:43:37;;;;;;;35.17;18.92;;;;;;;1.47;100.00;99482.78;1727737;82;21006;-68
2021/12/09 17:46:06;;;;;;;33.55;17.95;;;;;;;1.47;100.00;99484.94;1727026;80;21034;-67
2021/12/09 17:48:33;;;;;;;37.23;19.05;;;;;;;1.48;100.00;99488.48;1701420;83;20943;-68
2021/12/09 17:51:03;;;;;;;37.88;19.92;;;;;;;1.48;100.00;99502.06;1728138;83;21432;-67
2021/12/09 17:53:29;;;;;;;36.33;19.27;;;;;;;1.49;100.00;99508.59;1728336;83;21428;-68
2021/12/09 17:56:00;;;;;;;35.58;20.02;;;;;;;1.51;100.00;99506.97;1726460;82;21146;-68
2021/12/09 17:58:27;;;;;;;38.08;19.87;;;;;;;1.50;100.00;99510.21;1700361;83;21448;-67
2021/12/09 18:00:56;;;;;;;37.50;18.52;;;;;;;1.52;100.00;99509.98;1714531;83;20896;-67
2021/12/09 18:03:25;;;;;;;33.50;17.65;;;;;;;1.53;100.00;99512.44;1663203;83;20872;-68
2021/12/09 18:05:52;;;;;;;41.53;20.75;;;;;;;1.55;100.00;99512.17;1714796;83;20897;-67
2021/12/09 18:08:19;;;;;;;42.43;20.80;;;;;;;1.57;100.00;99504.56;1714711;83;21038;-67
2021/12/09 18:10:50;;;;;;;41.45;20.72;;;;;;;1.57;100.00;99504.56;1686750;83;20916;-68
2021/12/09 18:13:20;;;;;;;42.95;20.62;;;;;;;1.60;100.00;99503.23;1686770;83;21402;-68
2021/12/09 18:15:52;;;;;;;43.63;23.25;;;;;;;1.60;100.00;99502.70;1715161;83;20916;-68
2021/12/09 18:18:26;;;;;;;34.38;20.85;;;;;;;1.61;100.00;99500.25;1715230;83;20896;-68
2021/12/09 18:20:59;;;;;;;35.33;19.55;;;;;;;1.62;100.00;99499.73;1715501;83;22186;-67
2021/12/09 18:23:28;;;;;;;33.92;17.25;;;;;;;1.63;100.00;99489.95;1715596;83;20989;-67
2021/12/09 18:25:55;;;;;;;32.08;17.48;;;;;;;1.63;100.00;99491.31;1715275;83;21540;-68
2021/12/09 18:28:25;;;;;;;31.33;16.93;;;;;;;1.63;100.00;99491.84;1715223;83;21487;-68
2021/12/09 18:30:55;;;;;;;31.70;16.65;;;;;;;1.62;100.00;99495.66;1715251;83;21051;-68
2021/12/09 18:33:23;;;;;;;29.82;16.65;;;;;;;1.62;100.00;99496.45;1687084;83;21496;-68
2021/12/09 18:35:51;;;;;;;31.52;17.07;;;;;;;1.63;100.00;99495.92;1715143;83;20912;-68
2021/12/09 18:38:20;;;;;;;31.57;16.55;;;;;;;1.63;100.00;99499.47;1686965;83;20953;-67
2021/12/09 18:40:54;;;;;;;33.58;16.20;;;;;;;1.63;100.00;99506.25;1715243;83;21468;-67
2021/12/09 18:43:21;;;;;;;34.20;17.12;;;;;;;1.64;100.00;99506.52;1715571;83;21424;-68
2021/12/09 18:45:51;;;;;;;29.27;16.35;;;;;;;1.64;100.00;99514.67;1715350;80;21442;-68
2021/12/09 18:48:20;;;;;;;29.00;16.12;;;;;;;1.65;100.00;99514.97;1715450;83;20916;-67
2021/12/09 18:50:48;;;;;;;30.52;17.57;;;;;;;1.65;100.00;99520.41;1686729;83;20964;-68
2021/12/09 18:53:15;;;;;;;33.50;17.90;;;;;;;1.64;100.00;99516.59;1687029;83;21480;-66
2021/12/09 18:55:46;;;;;;;37.15;18.57;;;;;;;1.63;100.00;99522.55;1686907;83;21074;-68
2021/12/09 18:58:17;;;;;;;37.60;18.45;;;;;;;1.63;100.00;99519.01;1715452;83;21121;-67
2021/12/09 19:00:46;;;;;;;31.48;17.45;;;;;;;1.62;100.00;99514.11;1719983;83;20975;-68
2021/12/09 19:03:15;;;;;;;36.50;19.02;;;;;;;1.61;100.00;99516.55;1721432;83;21011;-68
2021/12/09 19:05:45;;;;;;;38.42;18.75;;;;;;;1.61;100.00;99517.09;1721095;83;20955;-67
2021/12/09 19:08:16;;;;;;;42.17;18.37;;;;;;;1.62;100.00;99520.90;1721418;83;21527;-68
2021/12/09 19:10:43;;;;;;;38.80;19.80;;;;;;;1.63;100.00;99523.91;1721206;83;21148;-69
2021/12/09 19:13:12;;;;;;;32.70;17.60;;;;;;;1.65;100.00;99525.01;1721336;83;21449;-69
2021/12/09 19:15:41;;;;;;;29.65;17.05;;;;;;;1.65;100.00;99516.86;1721266;83;21393;-68